FNBG/BUG METAR and TAF weather

Enter ICAO airport designator
Station Type Date Time Source
FNBG METAR 2019/08/25 08:00 UTC NOAA

FNBG 250800Z 00000KT CAVOK 22/17 Q1017


Station Type Date Time Source
FNBG Decoded METAR 2019/08/25 08:00 UTC NOAA

Station name not available
Aug 25, 2019 - 04:00 AM EDT / 2019.08.25 0800 UTC
Wind: Calm:0
Visibility: greater than 7 mile(s):0
Temperature: 71 F (22 C)
Dew Point: 62 F (17 C)
Relative Humidity: 73%
Pressure (altimeter): 30.03 in. Hg (1017 hPa)
ob: FNBG 250800Z 00000KT CAVOK 22/17 Q1017
cycle: 8

Station Type Date Time Source
FNBG TAF 2019/08/25 12:00 UTC NOAA

TAF FNBG 251100Z 2512/2524 29007KT 9000 NSC PROB30
TEMPO 2519/2524 CAVOK

Example: see airport list